Wetterdaten: Juni 2011
Datum Temp Feuchte Luftdruck Regen Wind Richtung Sonnenschein UV Solar Windben
01.06.2011 12,5 C 72 % 1027,9 hPa 0,0 l/m 5,1 km/h N 9,83 h 3,5 UV-I 409 W/m 10,8 km/h
02.06.2011 15,1 C 59 % 1031,6 hPa 0,0 l/m 1,9 km/h N-NO 13,00 h 3,9 UV-I 504 W/m 6,4 km/h
03.06.2011 19,3 C 66 % 1027,6 hPa 0,0 l/m 4,7 km/h N-NO 12,33 h 3,6 UV-I 450 W/m 14,5 km/h
04.06.2011 22,1 C 59 % 1016,9 hPa 0,0 l/m 3,0 km/h N-NO 13,00 h 3,7 UV-I 470 W/m 12,5 km/h
05.06.2011 20,6 C 72 % 1005,8 hPa 0,4 l/m 5,1 km/h O-SO 8,67 h 3,9 UV-I 377 W/m 16,1 km/h
06.06.2011 18,0 C 87 % 1002,3 hPa 1,2 l/m 0,7 km/h S 5,75 h 2,8 UV-I 271 W/m 4,0 km/h
07.06.2011 18,2 C 79 % 1004,3 hPa 0,0 l/m 3,3 km/h NW 6,33 h 3,0 UV-I 339 W/m 10,1 km/h
08.06.2011 12,8 C 85 % 1006,0 hPa 2,4 l/m 2,2 km/h W-NW 1,67 h 1,1 UV-I 111 W/m 10,4 km/h
09.06.2011 15,2 C 60 % 1014,4 hPa 0,0 l/m 2,8 km/h NW 10,17 h 3,5 UV-I 450 W/m 7,6 km/h
10.06.2011 14,3 C 74 % 1014,7 hPa 0,0 l/m 3,2 km/h S-SO 2,92 h 2,5 UV-I 229 W/m 10,9 km/h
11.06.2011 14,1 C 71 % 1016,5 hPa 0,6 l/m 2,0 km/h W-NW 6,33 h 3,3 UV-I 362 W/m 10,0 km/h
12.06.2011 14,7 C 68 % 1017,5 hPa 0,0 l/m 0,8 km/h NW 6,83 h 3,2 UV-I 394 W/m 2,8 km/h
13.06.2011 17,3 C 70 % 1014,9 hPa 0,0 l/m 2,6 km/h S-SW 4,50 h 2,6 UV-I 263 W/m 8,9 km/h
14.06.2011 17,3 C 79 % 1016,9 hPa 2,0 l/m 1,4 km/h NW 4,83 h 3,1 UV-I 292 W/m 6,8 km/h
15.06.2011 16,5 C 86 % 1015,9 hPa 0,4 l/m 5,3 km/h S 4,17 h 2,1 UV-I 226 W/m 10,5 km/h
16.06.2011 16,8 C 82 % 1010,8 hPa 3,0 l/m 9,0 km/h S 2,08 h 2,7 UV-I 204 W/m 17,7 km/h
17.06.2011 15,2 C 71 % 1010,2 hPa 0,4 l/m 4,5 km/h S-SW 8,67 h 3,5 UV-I 421 W/m 12,8 km/h
18.06.2011 12,7 C 85 % 1003,4 hPa 8,4 l/m 11,3 km/h S 4,33 h 2,2 UV-I 259 W/m 19,3 km/h
19.06.2011 11,4 C 91 % 1008,4 hPa 3,0 l/m 14,9 km/h S 0,83 h 1,3 UV-I 130 W/m 27,4 km/h
20.06.2011 13,5 C 81 % 1012,9 hPa 0,2 l/m 5,1 km/h S-SW 3,42 h 2,5 UV-I 272 W/m 12,4 km/h
21.06.2011 17,2 C 83 % 1012,3 hPa 3,6 l/m 6,0 km/h S-SW 3,00 h 2,5 UV-I 238 W/m 12,5 km/h
22.06.2011 15,4 C 88 % 1010,7 hPa 25,0 l/m 11,9 km/h S 2,08 h 1,8 UV-I 161 W/m 20,1 km/h
23.06.2011 14,1 C 77 % 1014,6 hPa 0,0 l/m 6,1 km/h S-SW 3,67 h 2,5 UV-I 261 W/m 16,9 km/h
24.06.2011 13,1 C 78 % 1020,0 hPa 3,8 l/m 5,6 km/h S-SW 3,67 h 2,5 UV-I 269 W/m 15,7 km/h
25.06.2011 11,6 C 94 % 1022,5 hPa 4,0 l/m 3,2 km/h S-SW 1,00 h 1,5 UV-I 133 W/m 9,6 km/h
26.06.2011 17,0 C 93 % 1023,0 hPa 2,6 l/m 1,2 km/h W 3,92 h 2,4 UV-I 214 W/m 6,1 km/h
27.06.2011 22,2 C 70 % 1019,2 hPa 0,2 l/m 8,0 km/h SO 13,08 h 4,3 UV-I 485 W/m 15,3 km/h
28.06.2011 24,2 C 59 % 1014,7 hPa 0,0 l/m 5,3 km/h SO 13,08 h 4,3 UV-I 474 W/m 13,6 km/h
29.06.2011 19,4 C 84 % 1015,2 hPa 8,6 l/m 10,0 km/h NW 5,00 h 3,6 UV-I 283 W/m 21,7 km/h
30.06.2011 13,1 C 83 % 1020,3 hPa 9,2 l/m 4,4 km/h N-NW 4,42 h 3,2 UV-I 282 W/m 11,3 km/h
Min-Datum 10.06.11 02.06.11 08.06.11 19 Tage 01.06.11 - - - - 01.06.11
Min-Zeit 04:40 15:10 04:00 - 21:20 - - - - 21:35
Minimum 6,2 C 36 % 1001,0 hPa - 0,0 km/h - - - - 0,0 km/h
Max-Datum 05.06.11 25.06.11 02.06.11 22.06.11 18.06.11 - 27.06.11 21.06.11 21.06.11 18.06.11
Max-Zeit 14:40 22:05 10:00 15:05 16:05 - 20:10 13:00 13:00 16:05
Maximum 29,4 C 100 % 1032,8 hPa 25,0 l/m 29,3 km/h
S
- 13,00 h 8,7 UV-I 1245 W/m 57,9 km/h
S
Durchschnitt 16,2 C 77 % 1015,1 hPa #79,0 l/m 5,0 km/h S #182:35 h 2,9 UV-I 308 W/m 12,5 km/h

Durchschnitt Minimum Temp.10,7 C
Durchschnitt Maximum Temp.21,3 C